createdAt,value
2018-03-26T00:01:36.172Z,1.50
2018-03-26T00:04:02.379Z,1.40
2018-03-26T00:06:29.346Z,1.30
2018-03-26T00:08:55.598Z,1.20
2018-03-26T00:11:21.804Z,1.10
2018-03-26T00:13:48.029Z,1.00
2018-03-26T00:16:14.970Z,0.90
2018-03-26T00:18:41.932Z,0.90
2018-03-26T00:21:08.131Z,0.80
2018-03-26T00:23:34.392Z,0.80
2018-03-26T00:26:00.588Z,0.70
2018-03-26T00:28:26.804Z,0.60
2018-03-26T00:30:53.024Z,0.60
2018-03-26T00:33:19.228Z,0.60
2018-03-26T00:35:45.486Z,0.40
2018-03-26T00:38:11.693Z,0.30
2018-03-26T00:40:37.928Z,0.20
2018-03-26T00:43:04.132Z,0.10
2018-03-26T00:45:30.363Z,0.00
2018-03-26T00:47:56.565Z,0.10
2018-03-26T00:50:23.544Z,0.10
2018-03-26T00:52:49.760Z,0.00
2018-03-26T00:55:16.697Z,0.10
2018-03-26T00:57:43.669Z,0.10
2018-03-26T01:00:09.908Z,0.00
2018-03-26T01:02:36.147Z,0.20
2018-03-26T01:05:02.381Z,0.30
2018-03-26T01:07:28.604Z,0.20
2018-03-26T01:09:54.828Z,0.10
2018-03-26T01:12:21.029Z,0.00
2018-03-26T01:14:47.999Z,-0.10
2018-03-26T01:17:14.196Z,-0.20
2018-03-26T01:19:41.165Z,-0.20
2018-03-26T01:22:07.389Z,-0.30
2018-03-26T01:24:33.612Z,-0.30
2018-03-26T01:27:00.586Z,-0.40
2018-03-26T01:29:26.799Z,-0.50
2018-03-26T01:31:53.026Z,-0.40
2018-03-26T01:34:19.238Z,-0.40
2018-03-26T01:36:46.231Z,-0.20
2018-03-26T01:39:12.437Z,-0.30
2018-03-26T01:41:38.660Z,-0.20
2018-03-26T01:44:04.887Z,-0.20
2018-03-26T01:46:31.825Z,-0.30
2018-03-26T01:48:58.793Z,-0.40
2018-03-26T01:51:25.004Z,-0.50
2018-03-26T01:53:51.965Z,-0.10
2018-03-26T01:56:18.163Z,-0.20
2018-03-26T01:58:44.384Z,0.00
2018-03-26T02:01:10.607Z,0.10
2018-03-26T02:03:36.837Z,0.20
2018-03-26T02:06:03.057Z,0.40
2018-03-26T02:08:29.248Z,0.50
2018-03-26T02:10:55.492Z,0.60
2018-03-26T02:13:21.685Z,0.60
2018-03-26T02:15:48.616Z,0.70
2018-03-26T02:18:14.851Z,0.60
2018-03-26T02:20:41.045Z,0.70
2018-03-26T02:23:07.297Z,0.70
2018-03-26T02:25:33.496Z,0.70
2018-03-26T02:27:59.745Z,0.70
2018-03-26T02:30:25.950Z,0.60
2018-03-26T02:32:52.184Z,0.60
2018-03-26T02:35:18.414Z,0.60
2018-03-26T02:37:44.681Z,0.60
2018-03-26T02:40:10.896Z,0.60
2018-03-26T02:42:37.121Z,0.50
2018-03-26T02:45:03.368Z,0.60
2018-03-26T02:47:31.652Z,0.50
2018-03-26T02:50:00.036Z,0.40
2018-03-26T02:52:28.079Z,0.30
2018-03-26T02:54:56.817Z,0.20
2018-03-26T02:57:26.031Z,0.30
2018-03-26T02:59:54.959Z,0.20
2018-03-26T03:02:23.555Z,0.30
2018-03-26T03:04:51.873Z,0.50
2018-03-26T03:07:21.049Z,0.70
2018-03-26T03:09:49.863Z,0.60
2018-03-26T03:12:18.874Z,0.60
2018-03-26T03:14:48.505Z,0.50
2018-03-26T03:17:18.599Z,0.50
2018-03-26T03:19:48.022Z,0.60
2018-03-26T03:22:17.227Z,0.80
2018-03-26T03:24:46.616Z,0.90
2018-03-26T03:27:15.910Z,1.00
2018-03-26T03:29:46.367Z,1.00
2018-03-26T03:32:17.155Z,1.00
2018-03-26T03:34:49.050Z,0.90
2018-03-26T03:37:20.600Z,0.90
2018-03-26T03:39:51.824Z,0.90
2018-03-26T03:42:21.718Z,0.90
2018-03-26T03:44:51.534Z,0.90
2018-03-26T03:47:21.229Z,1.00
2018-03-26T03:49:52.025Z,1.00
2018-03-26T03:52:23.609Z,1.10
2018-03-26T03:54:52.035Z,1.10
2018-03-26T03:57:21.727Z,1.20
2018-03-26T03:59:50.778Z,1.20
2018-03-26T04:02:20.024Z,1.20
2018-03-26T04:04:48.942Z,1.20
2018-03-26T04:07:18.477Z,0.90
2018-03-26T04:09:47.552Z,0.90
2018-03-26T04:12:16.557Z,0.90
2018-03-26T04:14:45.150Z,0.90
2018-03-26T04:17:13.960Z,0.80
2018-03-26T04:19:42.140Z,0.70
2018-03-26T04:22:08.415Z,0.60
2018-03-26T04:24:35.360Z,0.20
2018-03-26T04:27:02.346Z,0.20
2018-03-26T04:29:28.564Z,0.20
2018-03-26T04:31:54.801Z,0.10
2018-03-26T04:34:20.996Z,0.00
2018-03-26T04:36:47.209Z,0.20
2018-03-26T04:39:13.427Z,0.40
2018-03-26T04:41:39.715Z,0.60
2018-03-26T04:44:05.908Z,0.60
2018-03-26T04:46:32.153Z,0.60
2018-03-26T04:48:59.091Z,0.50
2018-03-26T04:51:26.044Z,0.40
2018-03-26T04:53:52.982Z,0.20
2018-03-26T04:56:19.205Z,0.20
2018-03-26T04:58:45.428Z,0.10
2018-03-26T05:01:11.618Z,0.00
2018-03-26T05:03:37.833Z,-0.20
2018-03-26T05:06:04.081Z,-0.20
2018-03-26T05:08:30.352Z,-0.10
2018-03-26T05:10:56.553Z,-0.10
2018-03-26T05:13:22.777Z,-0.10
2018-03-26T05:15:48.991Z,-0.10
2018-03-26T05:18:15.214Z,-0.10
2018-03-26T05:20:41.430Z,0.10
2018-03-26T05:23:07.657Z,0.30
2018-03-26T05:25:34.595Z,0.70
2018-03-26T05:28:01.562Z,0.80
2018-03-26T05:30:27.781Z,0.80
2018-03-26T05:32:54.724Z,1.20
2018-03-26T05:35:21.687Z,1.30
2018-03-26T05:37:47.885Z,1.20
2018-03-26T05:40:14.148Z,1.30
2018-03-26T05:42:40.364Z,1.30
2018-03-26T05:45:07.348Z,1.40
2018-03-26T05:47:33.604Z,1.40
2018-03-26T05:49:59.800Z,1.50
2018-03-26T05:52:26.022Z,1.60
2018-03-26T05:54:52.216Z,1.70
2018-03-26T05:57:19.172Z,1.90
2018-03-26T05:59:46.107Z,2.00
2018-03-26T06:02:13.076Z,2.10
2018-03-26T06:04:39.271Z,2.00
2018-03-26T06:07:05.509Z,2.10
2018-03-26T06:09:31.713Z,2.20
2018-03-26T06:11:57.939Z,2.30
2018-03-26T06:14:24.192Z,2.40
2018-03-26T06:16:56.307Z,2.40
2018-03-26T06:19:22.588Z,2.60
2018-03-26T06:21:48.824Z,2.70
2018-03-26T06:24:15.095Z,2.90
2018-03-26T06:26:41.295Z,3.00
2018-03-26T06:29:08.320Z,3.20
2018-03-26T06:31:34.566Z,3.20
2018-03-26T06:34:00.829Z,3.30
2018-03-26T06:36:45.987Z,3.40
2018-03-26T06:39:19.116Z,3.50
2018-03-26T06:41:45.523Z,3.50
2018-03-26T06:44:11.975Z,3.70
2018-03-26T06:46:38.371Z,3.70
2018-03-26T06:49:05.511Z,3.90
2018-03-26T06:51:31.913Z,3.90
2018-03-26T06:53:58.351Z,3.90
2018-03-26T06:56:24.751Z,3.90
2018-03-26T06:58:51.146Z,3.80
2018-03-26T07:01:17.515Z,3.70
2018-03-26T07:03:43.906Z,3.50
2018-03-26T07:06:10.274Z,3.50
2018-03-26T07:08:36.679Z,3.50
2018-03-26T07:11:03.067Z,3.80
2018-03-26T07:13:29.465Z,4.10
2018-03-26T07:15:56.583Z,4.90
2018-03-26T07:18:22.973Z,4.90
2018-03-26T07:20:49.598Z,5.30
2018-03-26T07:23:15.998Z,5.60
2018-03-26T07:25:42.400Z,5.80
2018-03-26T07:28:08.795Z,6.00
2018-03-26T07:30:35.938Z,6.10
2018-03-26T07:33:03.057Z,6.10
2018-03-26T07:35:29.463Z,6.00
2018-03-26T07:37:55.843Z,6.00
2018-03-26T07:40:22.247Z,6.10
2018-03-26T07:42:48.685Z,6.20
2018-03-26T07:45:15.066Z,6.50
2018-03-26T07:47:42.206Z,6.80
2018-03-26T07:50:09.415Z,6.90
2018-03-26T07:52:35.810Z,6.80
2018-03-26T07:55:02.186Z,6.70
2018-03-26T07:57:28.585Z,6.70
2018-03-26T07:59:54.972Z,6.90
2018-03-26T08:02:21.343Z,7.10
2018-03-26T08:04:47.753Z,7.30
2018-03-26T08:07:14.869Z,7.20
2018-03-26T08:09:41.318Z,7.20
2018-03-26T08:12:07.686Z,7.20
2018-03-26T08:14:34.810Z,7.10
2018-03-26T08:17:01.244Z,7.00
2018-03-26T08:19:27.615Z,7.20
2018-03-26T08:21:54.001Z,7.40
2018-03-26T08:24:20.401Z,7.60
2018-03-26T08:26:46.811Z,7.80
2018-03-26T08:29:13.926Z,7.70
2018-03-26T08:31:40.332Z,7.60
2018-03-26T08:34:06.702Z,7.70
2018-03-26T08:36:33.103Z,7.70
2018-03-26T08:38:59.481Z,7.90
2018-03-26T08:41:26.627Z,8.20
2018-03-26T08:43:53.019Z,8.10
2018-03-26T08:46:19.398Z,8.70
2018-03-26T08:48:45.817Z,8.70
2018-03-26T08:51:12.231Z,8.90
2018-03-26T08:53:38.650Z,8.80
2018-03-26T08:56:05.070Z,8.80
2018-03-26T08:58:31.468Z,8.80
2018-03-26T09:00:57.840Z,8.50
2018-03-26T09:03:24.214Z,8.40
2018-03-26T09:05:50.625Z,8.50
2018-03-26T09:08:17.057Z,8.50
2018-03-26T09:10:43.454Z,8.60
2018-03-26T09:13:10.633Z,8.60
2018-03-26T09:15:36.996Z,8.50
2018-03-26T09:18:03.425Z,8.60
2018-03-26T09:20:29.799Z,8.80
2018-03-26T09:22:56.960Z,9.10
2018-03-26T09:25:24.074Z,9.10
2018-03-26T09:27:50.470Z,9.00
2018-03-26T09:30:16.857Z,9.00
2018-03-26T09:32:43.226Z,9.00
2018-03-26T09:35:09.631Z,9.10
2018-03-26T09:37:36.738Z,9.40
2018-03-26T09:40:03.229Z,9.30
2018-03-26T09:42:30.338Z,9.30
2018-03-26T09:44:56.738Z,9.20
2018-03-26T09:47:23.133Z,9.60
2018-03-26T09:49:50.346Z,10.80
2018-03-26T09:52:16.707Z,10.80
2018-03-26T09:54:43.108Z,11.20
2018-03-26T09:57:09.485Z,11.10
2018-03-26T09:59:35.882Z,10.90
2018-03-26T10:02:02.299Z,10.90
2018-03-26T10:04:28.709Z,10.60
2018-03-26T10:06:55.851Z,10.00
2018-03-26T10:09:22.967Z,10.00
2018-03-26T10:11:49.516Z,9.90
2018-03-26T10:14:15.927Z,9.90
2018-03-26T10:16:42.318Z,9.60
2018-03-26T10:19:08.717Z,9.40
2018-03-26T10:21:35.135Z,9.40
2018-03-26T10:24:01.523Z,9.40
2018-03-26T10:26:28.009Z,9.50
2018-03-26T10:28:55.343Z,9.50
2018-03-26T10:31:21.762Z,9.30
2018-03-26T10:33:48.132Z,9.30
2018-03-26T10:36:14.586Z,9.10
2018-03-26T10:38:41.008Z,9.10
2018-03-26T10:41:07.455Z,9.20
2018-03-26T10:43:33.897Z,9.40
2018-03-26T10:46:00.313Z,9.80
2018-03-26T10:48:26.702Z,10.00
2018-03-26T10:50:53.098Z,10.00
2018-03-26T10:53:19.549Z,10.10
2018-03-26T10:55:46.691Z,10.00
2018-03-26T10:58:13.850Z,9.90
2018-03-26T11:00:41.001Z,9.90
2018-03-26T11:03:08.138Z,10.20
2018-03-26T11:05:35.264Z,10.20
2018-03-26T11:08:01.710Z,10.20
2018-03-26T11:10:28.122Z,10.40
2018-03-26T11:12:54.487Z,10.30
2018-03-26T11:15:20.895Z,10.50
2018-03-26T11:17:47.284Z,10.60
2018-03-26T11:20:13.707Z,10.90
2018-03-26T11:22:40.853Z,11.00
2018-03-26T11:25:08.010Z,11.00
2018-03-26T11:27:35.167Z,10.90
2018-03-26T11:30:02.358Z,10.80
2018-03-26T11:32:28.756Z,10.70
2018-03-26T11:34:55.904Z,10.40
2018-03-26T11:37:23.032Z,10.30
2018-03-26T11:39:49.460Z,10.20
2018-03-26T11:42:15.857Z,10.00
2018-03-26T11:44:42.254Z,9.80
2018-03-26T11:47:09.494Z,9.40
2018-03-26T11:49:36.632Z,9.30
2018-03-26T11:52:03.107Z,9.30
2018-03-26T11:54:29.540Z,9.20
2018-03-26T11:56:55.946Z,9.40
2018-03-26T11:59:22.363Z,9.40
2018-03-26T12:01:48.827Z,9.50
2018-03-26T12:04:15.980Z,9.60
2018-03-26T12:06:43.133Z,9.70
2018-03-26T12:09:10.262Z,9.70
2018-03-26T12:11:36.690Z,9.70
2018-03-26T12:14:03.102Z,9.80
2018-03-26T12:16:29.502Z,9.80
2018-03-26T12:18:55.882Z,9.90
2018-03-26T12:21:22.293Z,9.90
2018-03-26T12:24:01.010Z,9.60
2018-03-26T12:26:27.453Z,9.60
2018-03-26T12:29:06.106Z,9.60
2018-03-26T12:31:32.534Z,9.50
2018-03-26T12:34:11.097Z,9.40
2018-03-26T12:36:38.264Z,8.90
2018-03-26T12:39:04.706Z,8.90
2018-03-26T12:41:31.104Z,8.80
2018-03-26T12:43:58.249Z,8.80
2018-03-26T12:46:43.887Z,8.70
2018-03-26T12:49:10.344Z,8.60
2018-03-26T12:51:49.026Z,8.70
2018-03-26T12:54:15.432Z,8.70
2018-03-26T12:56:42.585Z,8.70
2018-03-26T12:59:09.733Z,8.40
2018-03-26T13:01:49.208Z,8.40
2018-03-26T13:04:15.613Z,8.40
2018-03-26T13:06:42.823Z,9.00
2018-03-26T13:09:09.234Z,8.90
2018-03-26T13:11:35.657Z,9.20
2018-03-26T13:14:02.052Z,9.60
2018-03-26T13:16:28.486Z,10.00
2018-03-26T13:18:54.887Z,10.10
2018-03-26T13:21:21.295Z,10.10
2018-03-26T13:23:47.687Z,10.10
2018-03-26T13:26:14.122Z,10.00
2018-03-26T13:28:40.527Z,10.10
2018-03-26T13:31:06.936Z,10.20
2018-03-26T13:33:33.361Z,10.20
2018-03-26T13:35:59.753Z,10.30
2018-03-26T13:38:26.166Z,10.10
2018-03-26T13:40:52.552Z,10.10
2018-03-26T13:43:19.773Z,9.90
2018-03-26T13:45:46.185Z,9.80
2018-03-26T13:48:12.652Z,9.90
2018-03-26T13:50:39.050Z,10.00
2018-03-26T13:53:05.475Z,10.10
2018-03-26T13:55:31.871Z,10.30
2018-03-26T13:57:59.030Z,10.30
2018-03-26T14:00:26.193Z,10.30
2018-03-26T14:02:52.581Z,10.20
2018-03-26T14:05:18.982Z,10.40
2018-03-26T14:07:45.362Z,10.30
2018-03-26T14:10:24.793Z,9.80
2018-03-26T14:13:03.559Z,9.80
2018-03-26T14:15:42.224Z,9.80
2018-03-26T14:18:08.732Z,9.80
2018-03-26T14:20:35.151Z,9.70
2018-03-26T14:23:01.567Z,9.60
2018-03-26T14:25:28.730Z,9.40
2018-03-26T14:27:55.113Z,9.30
2018-03-26T14:30:21.522Z,9.30
2018-03-26T14:32:47.930Z,9.20
2018-03-26T14:38:21.067Z,9.30
2018-03-26T14:40:47.531Z,9.30
2018-03-26T14:43:13.972Z,9.30
2018-03-26T14:45:40.372Z,9.30
2018-03-26T14:48:06.799Z,9.40
2018-03-26T14:50:33.266Z,9.40
2018-03-26T14:52:59.683Z,9.40
2018-03-26T14:55:26.115Z,9.50
2018-03-26T14:57:52.527Z,9.60
2018-03-26T15:00:18.971Z,9.50
2018-03-26T15:02:45.404Z,9.60
2018-03-26T15:05:11.851Z,9.70
2018-03-26T15:07:38.283Z,9.80
2018-03-26T15:10:04.722Z,9.70
2018-03-26T15:12:31.135Z,9.70
2018-03-26T15:14:57.518Z,9.60
2018-03-26T15:17:23.986Z,9.50
2018-03-26T15:19:51.128Z,9.50
2018-03-26T15:22:18.296Z,9.50
2018-03-26T15:24:45.426Z,9.70
2018-03-26T15:27:11.862Z,9.60
2018-03-26T15:29:38.285Z,9.70
2018-03-26T15:32:04.679Z,9.70
2018-03-26T15:34:31.102Z,9.70
2018-03-26T15:36:57.578Z,9.70
2018-03-26T15:39:24.019Z,9.40
2018-03-26T15:41:50.396Z,9.30
2018-03-26T15:44:16.812Z,9.10
2018-03-26T15:46:43.963Z,8.70
2018-03-26T15:49:11.100Z,8.60
2018-03-26T15:51:37.547Z,8.50
2018-03-26T15:54:04.699Z,8.40
2018-03-26T15:56:31.827Z,8.30
2018-03-26T15:58:58.924Z,8.30
2018-03-26T16:01:25.318Z,8.30
2018-03-26T16:03:51.718Z,8.40
2018-03-26T16:06:18.135Z,8.40
2018-03-26T16:08:44.522Z,8.40
2018-03-26T16:11:10.923Z,8.40
2018-03-26T16:13:37.330Z,8.30
2018-03-26T16:16:03.794Z,8.20
2018-03-26T16:18:30.176Z,8.10
2018-03-26T16:20:57.339Z,7.90
2018-03-26T16:23:23.726Z,7.90
2018-03-26T16:25:50.128Z,7.80
2018-03-26T16:28:16.529Z,7.70
2018-03-26T16:30:43.659Z,7.50
2018-03-26T16:33:10.070Z,7.40
2018-03-26T16:35:36.431Z,7.40
2018-03-26T16:38:02.865Z,7.30
2018-03-26T16:40:29.260Z,7.20
2018-03-26T16:43:05.727Z,7.20
2018-03-26T16:45:32.884Z,7.10
2018-03-26T16:47:59.287Z,7.00
2018-03-26T16:50:25.735Z,7.00
2018-03-26T16:52:52.111Z,7.00
2018-03-26T16:55:18.528Z,6.90
2018-03-26T16:57:44.902Z,6.90
2018-03-26T17:00:12.113Z,6.80
2018-03-26T17:02:38.564Z,6.70
2018-03-26T17:05:05.791Z,6.70
2018-03-26T17:07:32.218Z,6.60
2018-03-26T17:09:58.636Z,6.70
2018-03-26T17:12:25.048Z,6.70
2018-03-26T17:14:52.190Z,6.60
2018-03-26T17:17:19.406Z,6.50
2018-03-26T17:19:45.852Z,6.40
2018-03-26T17:22:12.243Z,6.30
2018-03-26T17:24:38.673Z,6.30
2018-03-26T17:27:05.093Z,6.20
2018-03-26T17:29:32.539Z,6.20
2018-03-26T17:31:58.954Z,6.10
2018-03-26T17:34:25.381Z,6.10
2018-03-26T17:36:53.335Z,6.00
2018-03-26T17:39:20.834Z,5.80
2018-03-26T17:41:47.270Z,5.80
2018-03-26T17:44:13.673Z,5.70
2018-03-26T17:46:40.293Z,5.60
2018-03-26T17:49:07.352Z,5.40
2018-03-26T17:51:34.603Z,5.10
2018-03-26T17:54:02.167Z,5.00
2018-03-26T17:56:28.627Z,5.00
2018-03-26T17:58:56.248Z,4.70
2018-03-26T18:01:22.664Z,4.70
2018-03-26T18:03:49.071Z,4.70
2018-03-26T18:06:15.514Z,4.50
2018-03-26T18:08:42.685Z,4.40
2018-03-26T18:11:09.845Z,4.40
2018-03-26T18:13:38.608Z,4.30
2018-03-26T18:16:07.492Z,4.30
2018-03-26T18:18:34.822Z,4.20
2018-03-26T18:21:06.372Z,4.10
2018-03-26T18:23:37.630Z,4.10
2018-03-26T18:26:09.867Z,4.00
2018-03-26T18:28:41.203Z,4.00
2018-03-26T18:31:13.687Z,3.90
2018-03-26T18:33:44.600Z,3.80
2018-03-26T18:36:17.164Z,3.80
2018-03-26T18:38:47.771Z,3.70
2018-03-26T18:41:17.901Z,3.80
2018-03-26T18:43:48.584Z,3.90
2018-03-26T18:46:20.112Z,4.00
2018-03-26T18:48:48.594Z,4.00
2018-03-26T18:51:18.254Z,4.00
2018-03-26T18:53:48.338Z,3.90
2018-03-26T18:56:18.863Z,3.90
2018-03-26T18:58:48.765Z,3.80
2018-03-26T19:01:21.084Z,3.80
2018-03-26T19:03:53.161Z,3.90
2018-03-26T19:06:24.453Z,3.90
2018-03-26T19:08:55.492Z,4.00
2018-03-26T19:11:26.974Z,4.00
2018-03-26T19:13:58.944Z,4.00
2018-03-26T19:16:31.930Z,4.00
2018-03-26T19:19:03.122Z,4.10
2018-03-26T19:21:34.734Z,4.10
2018-03-26T19:24:07.253Z,4.10
2018-03-26T19:26:39.339Z,4.10
2018-03-26T19:29:10.472Z,4.10
2018-03-26T19:31:41.418Z,4.10
2018-03-26T19:34:12.263Z,4.10
2018-03-26T19:36:45.061Z,4.00
2018-03-26T19:39:15.729Z,4.00
2018-03-26T19:41:47.050Z,4.00
2018-03-26T19:44:17.543Z,4.00
2018-03-26T19:46:48.308Z,4.00
2018-03-26T19:49:18.759Z,4.00
2018-03-26T19:51:49.294Z,4.00
2018-03-26T19:54:19.095Z,4.00
2018-03-26T19:56:49.292Z,4.00
2018-03-26T19:59:21.395Z,4.10
2018-03-26T20:01:51.742Z,4.10
2018-03-26T20:04:21.296Z,4.10
2018-03-26T20:06:50.812Z,4.10
2018-03-26T20:09:20.514Z,4.00
2018-03-26T20:11:49.273Z,4.00
2018-03-26T20:14:18.095Z,4.00
2018-03-26T20:16:47.454Z,4.00
2018-03-26T20:19:14.857Z,4.00
2018-03-26T20:21:44.307Z,4.00
2018-03-26T20:24:12.848Z,4.00
2018-03-26T20:26:42.638Z,4.00
2018-03-26T20:29:10.937Z,4.00
2018-03-26T20:31:40.730Z,4.00
2018-03-26T20:34:09.882Z,4.00
2018-03-26T20:36:39.021Z,4.00
2018-03-26T20:39:07.802Z,4.00
2018-03-26T20:41:36.868Z,4.00
2018-03-26T20:44:07.178Z,4.10
2018-03-26T20:46:37.389Z,4.00
2018-03-26T20:49:06.878Z,4.00
2018-03-26T20:51:36.140Z,4.00
2018-03-26T20:54:06.746Z,4.00
2018-03-26T20:56:36.761Z,4.10
2018-03-26T20:59:05.788Z,4.00
2018-03-26T21:01:34.466Z,4.10
2018-03-26T21:04:11.353Z,4.10
2018-03-26T21:06:40.873Z,4.20
2018-03-26T21:09:10.416Z,4.10
2018-03-26T21:11:40.501Z,4.20
2018-03-26T21:14:09.757Z,4.20
2018-03-26T21:16:38.984Z,4.20
2018-03-26T21:19:08.094Z,4.20
2018-03-26T21:21:37.730Z,4.20
2018-03-26T21:24:07.259Z,4.20
2018-03-26T21:26:36.686Z,4.20
2018-03-26T21:29:03.877Z,4.20
2018-03-26T21:31:32.465Z,4.10
2018-03-26T21:34:00.944Z,4.20
2018-03-26T21:36:29.600Z,4.20
2018-03-26T21:38:58.934Z,4.10
2018-03-26T21:41:27.331Z,4.10
2018-03-26T21:43:56.308Z,4.10
2018-03-26T21:46:24.664Z,4.10
2018-03-26T21:48:54.144Z,4.10
2018-03-26T21:51:23.660Z,4.10
2018-03-26T21:53:52.858Z,4.10
2018-03-26T21:56:22.842Z,4.10
2018-03-26T21:58:51.875Z,4.10
2018-03-26T22:01:22.236Z,4.10
2018-03-26T22:03:51.366Z,4.10
2018-03-26T22:06:20.871Z,4.10
2018-03-26T22:08:50.490Z,4.10
2018-03-26T22:11:20.750Z,4.10
2018-03-26T22:13:50.985Z,4.10
2018-03-26T22:16:19.627Z,4.00
2018-03-26T22:18:48.045Z,4.10
2018-03-26T22:21:17.534Z,4.00
2018-03-26T22:23:47.003Z,4.00
2018-03-26T22:26:16.065Z,4.00
2018-03-26T22:28:46.894Z,4.00
2018-03-26T22:31:16.044Z,4.00
2018-03-26T22:33:46.408Z,4.00
2018-03-26T22:36:16.735Z,4.00
2018-03-26T22:38:47.614Z,4.00
2018-03-26T22:41:17.108Z,3.90
2018-03-26T22:43:46.479Z,4.00
2018-03-26T22:46:15.468Z,4.00
2018-03-26T22:48:44.148Z,4.00
2018-03-26T22:51:12.885Z,3.90
2018-03-26T22:53:41.301Z,3.90
2018-03-26T22:56:10.082Z,3.90
2018-03-26T22:58:39.307Z,3.90
2018-03-26T23:01:08.174Z,3.90
2018-03-26T23:03:37.236Z,4.00
2018-03-26T23:06:05.520Z,4.00
2018-03-26T23:08:34.145Z,4.00
2018-03-26T23:11:03.112Z,4.00
2018-03-26T23:13:31.730Z,3.90
2018-03-26T23:16:00.858Z,3.90
2018-03-26T23:18:29.771Z,3.90
2018-03-26T23:20:59.962Z,3.90
2018-03-26T23:23:29.554Z,3.90
2018-03-26T23:25:59.218Z,3.80
2018-03-26T23:28:28.592Z,3.80
2018-03-26T23:30:58.780Z,3.80
2018-03-26T23:33:28.448Z,3.70
2018-03-26T23:35:58.303Z,3.80
2018-03-26T23:38:26.793Z,3.80
2018-03-26T23:40:55.348Z,3.80
2018-03-26T23:43:23.852Z,3.70
2018-03-26T23:45:52.308Z,3.70
2018-03-26T23:48:21.185Z,3.60
2018-03-26T23:50:50.724Z,3.60
2018-03-26T23:53:20.303Z,3.60
2018-03-26T23:55:49.423Z,3.60
2018-03-26T23:58:18.638Z,3.60
